Terminal Aerodrome Forecast
Issued by NWS Sioux Falls, SD

Home | Current Version | Previous Version | Text Only | Print | Product List | Glossary On
Versions: 1 2 3 4 5 6 7 8 9 10 11 12 13 14 15 16 17 18 19 20
108
FTUS43 KFSD 091122
TAFFSD
TAF
KFSD 091122Z 0912/1012 34014G22KT P6SM SCT200
     FM092200 33010KT P6SM BKN150
     FM100300 35006KT P6SM SCT050 OVC100
     FM100900 VRB03KT P6SM SCT035 OVC060=

USA.gov is the U.S. government's official web portal to all federal, state and local government web resources and services.